Time;durP1;ratioP1;P1;durP2;ratioP2;P2;SDS_P1;SDS_P2;PMS_P1;PMS_P2;Temp;Humidity;BMP_temperature;BMP_pressure;BME280_temperature;BME280_humidity;BME280_pressure;Samples;Min_cycle;Max_cycle;Signal;HPM_P1;HPM_P2
2024/04/21 00:00:07;;;;;;;;;;;;;;;17.74;44.66;100055.66;11175962;26;1148;-70
2024/04/21 00:05:03;;;;;;;;;;;;;;;17.73;44.96;100050.41;11175663;26;1834;-70
2024/04/21 00:09:59;;;;;;;;;;;;;;;17.72;44.68;100046.09;11175607;26;885;-70
2024/04/21 00:14:55;;;;;;;;;;;;;;;17.71;44.81;100042.59;11175307;26;829;-69
2024/04/21 00:19:51;;;;;;;;;;;;;;;17.71;44.83;100041.69;11175337;26;915;-70
2024/04/21 00:24:47;;;;;;;;;;;;;;;17.69;44.70;100039.16;11175097;26;1849;-70
2024/04/21 00:29:44;;;;;;;;;;;;;;;17.68;45.21;100040.06;11175059;26;966;-69
2024/04/21 00:34:40;;;;;;;;;;;;;;;17.68;44.82;100039.19;11174887;26;805;-70
2024/04/21 00:39:36;;;;;;;;;;;;;;;17.67;44.51;100027.78;11175271;26;2312;-70
2024/04/21 00:44:32;;;;;;;;;;;;;;;17.66;45.07;100023.44;11174488;26;1845;-70
2024/04/21 00:49:27;;;;;;;;;;;;;;;17.65;44.85;100021.72;11174433;26;820;-70
2024/04/21 00:54:23;;;;;;;;;;;;;;;17.65;44.77;100021.72;11174121;26;917;-70
2024/04/21 00:59:19;;;;;;;;;;;;;;;17.65;44.92;100021.72;11174521;26;1064;-70
2024/04/21 01:04:15;;;;;;;;;;;;;;;17.64;44.85;100017.38;11174535;26;1852;-70
2024/04/21 01:09:11;;;;;;;;;;;;;;;17.63;44.51;100013.03;11175079;26;904;-69
2024/04/21 01:14:07;;;;;;;;;;;;;;;17.64;45.07;100008.59;11174300;26;858;-70
2024/04/21 01:19:02;;;;;;;;;;;;;;;17.63;45.08;99998.97;11173946;26;894;-70
2024/04/21 01:23:58;;;;;;;;;;;;;;;17.62;44.85;100000.75;11173894;26;1825;-70
2024/04/21 01:28:54;;;;;;;;;;;;;;;17.61;45.07;100009.59;11174362;26;981;-70
2024/04/21 01:33:50;;;;;;;;;;;;;;;17.60;44.94;100005.22;11174328;26;820;-70
2024/04/21 01:38:46;;;;;;;;;;;;;;;17.61;45.18;100006.09;11174077;26;824;-70
2024/04/21 01:43:42;;;;;;;;;;;;;;;17.60;44.77;100013.13;11173150;26;1833;-70
2024/04/21 01:48:38;;;;;;;;;;;;;;;17.59;44.74;100002.66;11172927;26;899;-70
2024/04/21 01:53:35;;;;;;;;;;;;;;;17.58;44.40;99999.16;11173477;26;997;-70
2024/04/21 01:58:31;;;;;;;;;;;;;;;17.58;44.56;99988.63;11172508;26;883;-70
2024/04/21 02:03:27;;;;;;;;;;;;;;;17.56;45.02;99985.19;11171869;26;1833;-70
2024/04/21 02:08:23;;;;;;;;;;;;;;;17.56;44.65;99984.31;11178325;26;878;-70
2024/04/21 02:13:19;;;;;;;;;;;;;;;17.56;44.84;99984.31;11179039;26;899;-70
2024/04/21 02:18:15;;;;;;;;;;;;;;;17.53;44.63;99980.88;11178784;26;879;-69
2024/04/21 02:23:11;;;;;;;;;;;;;;;17.51;44.78;99976.59;11179304;26;1856;-70
2024/04/21 02:28:06;;;;;;;;;;;;;;;17.48;44.43;99982.84;11179274;26;840;-70
2024/04/21 02:33:03;;;;;;;;;;;;;;;17.46;44.44;99984.66;11179160;26;891;-69
2024/04/21 02:37:59;;;;;;;;;;;;;;;17.45;44.42;99982.09;11178969;26;904;-70
2024/04/21 02:42:55;;;;;;;;;;;;;;;17.42;44.70;99990.09;11178116;26;1817;-70
2024/04/21 02:47:50;;;;;;;;;;;;;;;17.42;44.87;99987.47;11178356;26;905;-69
2024/04/21 02:52:46;;;;;;;;;;;;;;;17.41;44.79;99991.03;11177881;26;847;-70
2024/04/21 02:57:42;;;;;;;;;;;;;;;17.40;44.70;100000.72;11178421;26;917;-69
2024/04/21 03:02:38;;;;;;;;;;;;;;;17.40;44.51;100000.72;11177477;26;1829;-69
2024/04/21 03:07:34;;;;;;;;;;;;;;;17.40;44.44;100002.50;11178210;26;858;-69
2024/04/21 03:12:30;;;;;;;;;;;;;;;17.39;44.52;100003.41;11178073;26;945;-70
2024/04/21 03:17:26;;;;;;;;;;;;;;;17.39;44.99;100003.41;11176048;26;843;-69
2024/04/21 03:22:21;;;;;;;;;;;;;;;17.39;44.95;100000.75;11176978;26;1859;-69
2024/04/21 03:27:17;;;;;;;;;;;;;;;17.39;44.85;99993.72;11177609;26;825;-70
2024/04/21 03:32:13;;;;;;;;;;;;;;;17.39;44.64;99998.97;11177509;26;885;-70
2024/04/21 03:37:09;;;;;;;;;;;;;;;17.40;44.47;99994.59;11177237;26;894;-70
2024/04/21 03:42:05;;;;;;;;;;;;;;;17.41;44.87;99994.53;11177402;26;814;-70
2024/04/21 03:47:01;;;;;;;;;;;;;;;17.42;44.41;99993.63;11176113;26;1825;-70
2024/04/21 03:51:57;;;;;;;;;;;;;;;17.45;44.67;99987.38;11176206;26;847;-69
2024/04/21 03:56:53;;;;;;;;;;;;;;;17.45;44.35;99987.38;11175979;26;966;-70
2024/04/21 04:01:49;;;;;;;;;;;;;;;17.47;45.05;99985.53;11176464;26;1176;-70
2024/04/21 04:06:44;;;;;;;;;;;;;;;17.48;44.46;99988.09;11176276;26;1841;-70
2024/04/21 04:11:40;;;;;;;;;;;;;;;17.50;44.95;99990.66;11176901;26;896;-70
2024/04/21 04:16:36;;;;;;;;;;;;;;;17.50;44.97;99981.00;11175958;26;1018;-69
2024/04/21 04:21:32;;;;;;;;;;;;;;;17.53;44.50;99980.03;11176624;26;860;-69
2024/04/21 04:26:28;;;;;;;;;;;;;;;17.54;44.30;99984.38;11175760;26;1856;-69
2024/04/21 04:31:24;;;;;;;;;;;;;;;17.55;44.93;99993.13;11175077;26;912;-69
2024/04/21 04:36:20;;;;;;;;;;;;;;;17.58;44.35;100000.91;11175484;26;959;-70
2024/04/21 04:41:16;;;;;;;;;;;;;;;17.59;44.77;100000.03;11175313;26;954;-70
2024/04/21 04:46:12;;;;;;;;;;;;;;;17.60;44.62;100001.72;11175840;26;1826;-70
2024/04/21 04:51:07;;;;;;;;;;;;;;;17.61;44.58;99999.03;11174862;26;880;-70
2024/04/21 04:56:03;;;;;;;;;;;;;;;17.60;44.40;100002.56;11174923;26;915;-70
2024/04/21 05:00:59;;;;;;;;;;;;;;;17.62;44.67;100003.38;11174899;26;1224;-69
2024/04/21 05:05:55;;;;;;;;;;;;;;;17.64;44.75;100013.88;11174556;26;1845;-70
2024/04/21 05:10:51;;;;;;;;;;;;;;;17.64;44.88;100013.88;11175162;26;931;-70
2024/04/21 05:15:47;;;;;;;;;;;;;;;17.64;44.25;100022.66;11174904;26;981;-69
2024/04/21 05:20:43;;;;;;;;;;;;;;;17.66;44.93;100039.25;11174014;26;879;-70
2024/04/21 05:25:38;;;;;;;;;;;;;;;17.66;44.78;100036.63;11174572;26;1829;-70
2024/04/21 05:30:34;;;;;;;;;;;;;;;17.66;44.30;100038.41;11173744;26;919;-70
2024/04/21 05:35:30;;;;;;;;;;;;;;;17.68;44.80;100049.75;11174299;26;803;-70
2024/04/21 05:40:26;;;;;;;;;;;;;;;17.67;44.44;100046.25;11175513;26;837;-70
2024/04/21 05:45:22;;;;;;;;;;;;;;;17.68;44.55;100047.09;11180360;26;1826;-70
2024/04/21 05:50:18;;;;;;;;;;;;;;;17.67;44.51;100051.53;11180206;26;913;-70
2024/04/21 05:55:14;;;;;;;;;;;;;;;17.69;44.51;100062.03;11180876;26;850;-69
2024/04/21 06:00:10;;;;;;;;;;;;;;;17.70;44.25;100066.38;11179851;26;1070;-69
2024/04/21 06:05:05;;;;;;;;;;;;;;;17.71;44.86;100074.22;11179888;26;1826;-70
2024/04/21 06:10:01;;;;;;;;;;;;;;;17.72;44.41;100075.94;11179167;26;1018;-71
2024/04/21 06:14:57;;;;;;;;;;;;;;;17.73;44.58;100085.56;11179085;26;829;-70
2024/04/21 06:19:53;;;;;;;;;;;;;;;17.74;44.36;100089.91;11178769;26;852;-71
2024/04/21 06:24:49;;;;;;;;;;;;;;;17.76;44.58;100092.47;11179324;26;1838;-73
2024/04/21 06:29:45;;;;;;;;;;;;;;;17.78;44.84;100098.56;11179523;26;923;-70
2024/04/21 06:34:41;;;;;;;;;;;;;;;17.79;44.87;100096.78;11179140;26;855;-70
2024/04/21 06:39:37;;;;;;;;;;;;;;;17.80;44.64;100101.19;11178362;26;844;-70
2024/04/21 06:44:33;;;;;;;;;;;;;;;17.80;44.36;100112.59;11178062;26;1821;-70
2024/04/21 06:49:30;;;;;;;;;;;;;;;17.81;44.67;100106.38;11177905;26;1065;-68
2024/04/21 06:54:25;;;;;;;;;;;;;;;17.81;44.71;100110.81;11178279;26;910;-71
2024/04/21 06:59:22;;;;;;;;;;;;;;;17.82;44.92;100120.47;11177670;26;1560;-70
2024/04/21 07:04:18;;;;;;;;;;;;;;;17.83;45.00;100119.53;11176565;26;1830;-69
2024/04/21 07:09:13;;;;;;;;;;;;;;;17.82;44.63;100131.84;11175731;26;847;-69
2024/04/21 07:14:09;;;;;;;;;;;;;;;17.84;44.81;100142.31;11177000;26;986;-70
2024/04/21 07:19:05;;;;;;;;;;;;;;;17.84;45.06;100140.56;11176436;26;927;-70
2024/04/21 07:24:01;;;;;;;;;;;;;;;17.86;44.32;100151.06;11176587;26;1858;-69
2024/04/21 07:28:57;;;;;;;;;;;;;;;17.87;44.95;100160.69;11176118;26;857;-69
2024/04/21 07:33:53;;;;;;;;;;;;;;;17.87;44.73;100160.69;11176426;26;822;-69
2024/04/21 07:38:49;;;;;;;;;;;;;;;17.88;45.07;100165.03;11175764;26;863;-68
2024/04/21 07:43:45;;;;;;;;;;;;;;;17.89;44.50;100174.66;11176142;26;1825;-69
2024/04/21 07:48:40;;;;;;;;;;;;;;;17.88;44.85;100175.59;11175293;26;845;-69
2024/04/21 07:53:36;;;;;;;;;;;;;;;17.88;44.92;100181.72;11175851;26;875;-68
2024/04/21 07:58:32;;;;;;;;;;;;;;;17.91;44.95;100186.88;11174843;26;1040;-69
2024/04/21 08:03:28;;;;;;;;;;;;;;;17.92;44.79;100195.66;11174218;26;1830;-69
2024/04/21 08:08:24;;;;;;;;;;;;;;;17.92;44.98;100199.16;11174724;26;810;-70
2024/04/21 08:13:20;;;;;;;;;;;;;;;17.93;44.82;100218.47;11069962;26;2169;-71
2024/04/21 08:18:16;;;;;;;;;;;;;;;17.92;44.85;100227.28;11027891;26;1060;-69
2024/04/21 08:23:12;;;;;;;;;;;;;;;17.92;44.45;100227.28;11027652;26;1837;-68
2024/04/21 08:28:07;;;;;;;;;;;;;;;17.91;44.74;100237.00;11031862;26;2195;-69
2024/04/21 08:33:03;;;;;;;;;;;;;;;17.92;44.58;100233.44;11031387;26;1996;-70
2024/04/21 08:37:59;;;;;;;;;;;;;;;17.94;44.69;100238.66;11027588;26;931;-69
2024/04/21 08:42:55;;;;;;;;;;;;;;;17.94;44.59;100249.22;11024015;26;1830;-69
2024/04/21 08:47:51;;;;;;;;;;;;;;;17.93;44.35;100250.13;11026613;26;870;-69
2024/04/21 08:52:48;;;;;;;;;;;;;;;17.92;44.72;100254.56;11026072;26;851;-69
2024/04/21 08:57:44;;;;;;;;;;;;;;;17.93;44.95;100258.91;11026479;26;801;-69
2024/04/21 09:02:40;;;;;;;;;;;;;;;17.93;44.40;100256.25;11026176;26;1861;-69
2024/04/21 09:07:37;;;;;;;;;;;;;;;17.96;44.55;100265.84;11135585;26;1387;-70
2024/04/21 09:12:33;;;;;;;;;;;;;;;17.96;44.95;100263.19;11173203;26;809;-70
2024/04/21 09:17:29;;;;;;;;;;;;;;;17.98;45.08;100265.81;11173181;26;1535;-70
2024/04/21 09:22:26;;;;;;;;;;;;;;;17.99;44.67;100265.72;11172872;26;874;-69
2024/04/21 09:27:24;;;;;;;;;;;;;;;18.03;44.95;100269.13;11099555;26;1853;-69
2024/04/21 09:32:19;;;;;;;;;;;;;;;18.03;44.44;100269.13;11098452;26;931;-70
2024/04/21 09:37:16;;;;;;;;;;;;;;;18.07;44.73;100270.72;11097766;26;971;-70
2024/04/21 09:42:12;;;;;;;;;;;;;;;18.07;44.92;100282.13;11098282;26;812;-70
2024/04/21 09:47:07;;;;;;;;;;;;;;;18.07;44.76;100297.97;11097415;26;1851;-69
2024/04/21 09:52:03;;;;;;;;;;;;;;;18.09;44.72;100301.41;11097686;26;922;-70
2024/04/21 09:57:00;;;;;;;;;;;;;;;18.13;44.50;100300.41;11097508;26;916;-69
2024/04/21 10:01:56;;;;;;;;;;;;;;;18.12;44.78;100303.94;11097658;26;1072;-69
2024/04/21 10:06:52;;;;;;;;;;;;;;;18.13;44.65;100307.44;11097882;26;1869;-69
2024/04/21 10:11:48;;;;;;;;;;;;;;;18.12;44.84;100311.84;11098492;26;901;-69
2024/04/21 10:16:43;;;;;;;;;;;;;;;18.15;44.63;100309.09;11097423;26;1053;-69
2024/04/21 10:21:39;;;;;;;;;;;;;;;18.14;44.85;100309.19;11098157;26;814;-70
2024/04/21 10:26:35;;;;;;;;;;;;;;;18.11;45.13;100314.56;11099517;26;1850;-71
2024/04/21 10:31:31;;;;;;;;;;;;;;;18.13;44.61;100317.97;11104597;26;926;-70
2024/04/21 10:36:27;;;;;;;;;;;;;;;18.15;44.92;100321.44;11105183;26;876;-70
2024/04/21 10:41:23;;;;;;;;;;;;;;;18.20;44.37;100314.22;11104977;26;892;-69
2024/04/21 10:46:19;;;;;;;;;;;;;;;18.27;44.37;100320.16;11104846;26;1818;-72
2024/04/21 10:51:14;;;;;;;;;;;;;;;18.28;44.77;100321.88;11104113;26;894;-69
2024/04/21 10:56:10;;;;;;;;;;;;;;;18.28;44.88;100327.13;11104561;26;896;-68
2024/04/21 11:01:06;;;;;;;;;;;;;;;18.28;44.46;100327.13;11103168;26;1221;-68
2024/04/21 11:06:02;;;;;;;;;;;;;;;18.33;44.47;100330.47;11111746;26;1861;-68
2024/04/21 11:10:58;;;;;;;;;;;;;;;18.32;44.53;100326.13;11176423;26;899;-69
2024/04/21 11:15:54;;;;;;;;;;;;;;;18.30;44.59;100330.59;11176516;26;942;-68
2024/04/21 11:20:50;;;;;;;;;;;;;;;18.32;44.86;100329.63;11176214;26;919;-69
2024/04/21 11:25:48;;;;;;;;;;;;;;;18.30;44.76;100330.59;11176248;26;1834;-69
2024/04/21 11:30:44;;;;;;;;;;;;;;;18.27;44.65;100342.13;11175965;26;855;-69
2024/04/21 11:35:40;;;;;;;;;;;;;;;18.26;44.97;100353.59;11175890;26;931;-69
2024/04/21 11:40:36;;;;;;;;;;;;;;;18.25;44.98;100354.50;11174166;26;817;-69
2024/04/21 11:45:32;;;;;;;;;;;;;;;18.26;44.47;100356.25;11176433;26;1844;-69
2024/04/21 11:50:28;;;;;;;;;;;;;;;18.32;44.52;100349.88;11176468;26;894;-69
2024/04/21 11:55:24;;;;;;;;;;;;;;;18.33;44.52;100341.88;11175620;26;1056;-69
2024/04/21 12:00:20;;;;;;;;;;;;;;;18.36;44.46;100346.19;11175485;26;1119;-68
2024/04/21 12:05:15;;;;;;;;;;;;;;;18.35;44.64;100345.34;11175220;26;1865;-69
2024/04/21 12:10:11;;;;;;;;;;;;;;;18.33;44.91;100348.94;11175923;26;882;-68
2024/04/21 12:15:08;;;;;;;;;;;;;;;18.32;45.05;100360.44;11173389;26;1002;-69
2024/04/21 12:20:04;;;;;;;;;;;;;;;18.30;44.97;100356.97;11175655;26;918;-69
2024/04/21 12:25:00;;;;;;;;;;;;;;;18.34;44.87;100354.19;11175473;26;1852;-68
2024/04/21 12:29:56;;;;;;;;;;;;;;;18.36;44.70;100352.31;11174735;26;805;-68
2024/04/21 12:34:52;;;;;;;;;;;;;;;18.35;44.70;100358.53;11174501;26;857;-68
2024/04/21 12:39:48;;;;;;;;;;;;;;;18.31;44.68;100378.06;11175046;26;862;-67
2024/04/21 12:44:44;;;;;;;;;;;;;;;18.31;44.99;100382.44;11174916;26;1828;-69
2024/04/21 12:49:40;;;;;;;;;;;;;;;18.31;44.80;100385.09;11171120;26;1275;-71
2024/04/21 12:54:36;;;;;;;;;;;;;;;18.30;44.86;100373.66;11173428;26;821;-70
2024/04/21 12:59:32;;;;;;;;;;;;;;;18.30;44.60;100367.53;11173451;26;1179;-69
2024/04/21 13:04:28;;;;;;;;;;;;;;;18.39;44.96;100364.56;11173592;26;1829;-69
2024/04/21 13:09:24;;;;;;;;;;;;;;;18.39;44.75;100370.72;11173857;26;859;-69
2024/04/21 13:14:20;;;;;;;;;;;;;;;18.34;44.31;100374.44;11173454;26;831;-70
2024/04/21 13:19:17;;;;;;;;;;;;;;;18.31;44.60;100385.09;11174033;26;865;-68
2024/04/21 13:24:13;;;;;;;;;;;;;;;18.30;44.86;100380.72;11173416;26;1825;-69
2024/04/21 13:29:09;;;;;;;;;;;;;;;18.31;44.89;100385.09;11173996;26;843;-69
2024/04/21 13:34:05;;;;;;;;;;;;;;;18.31;44.52;100388.59;11173097;26;899;-76
2024/04/21 13:39:01;;;;;;;;;;;;;;;18.35;45.12;100370.88;11173517;26;1007;-68
2024/04/21 13:43:57;;;;;;;;;;;;;;;18.45;45.09;100372.28;11172814;26;1919;-68
2024/04/21 13:48:52;;;;;;;;;;;;;;;18.52;45.29;100365.88;11172913;26;758;-68
2024/04/21 13:53:48;;;;;;;;;;;;;;;18.59;45.14;100363.84;11172448;26;882;-68
2024/04/21 13:58:44;;;;;;;;;;;;;;;18.64;45.58;100367.19;11172359;26;943;-68
2024/04/21 14:03:40;;;;;;;;;;;;;;;18.70;45.42;100363.44;11176693;26;1859;-68
2024/04/21 14:08:36;;;;;;;;;;;;;;;18.74;45.63;100359.78;11178963;26;1026;-68
2024/04/21 14:13:32;;;;;;;;;;;;;;;18.78;45.48;100343.78;11178943;26;813;-70
2024/04/21 14:18:28;;;;;;;;;;;;;;;18.64;45.78;100358.41;11178806;26;959;-70
2024/04/21 14:23:24;;;;;;;;;;;;;;;18.52;45.75;100362.34;11178349;26;1852;-69
2024/04/21 14:28:19;;;;;;;;;;;;;;;18.62;44.89;100367.22;11178555;26;901;-69
2024/04/21 14:33:15;;;;;;;;;;;;;;;18.67;44.57;100356.50;11178385;26;852;-69
2024/04/21 14:38:11;;;;;;;;;;;;;;;18.51;44.49;100377.31;11178170;26;898;-69
2024/04/21 14:43:07;;;;;;;;;;;;;;;18.61;44.14;100368.16;11178007;26;1857;-71
2024/04/21 14:48:03;;;;;;;;;;;;;;;18.61;44.14;100365.50;11178195;26;898;-70
2024/04/21 14:52:59;;;;;;;;;;;;;;;18.77;43.52;100378.19;11178691;26;913;-70
2024/04/21 14:57:55;;;;;;;;;;;;;;;18.88;43.51;100380.41;11177964;26;931;-74
2024/04/21 15:02:51;;;;;;;;;;;;;;;18.95;43.74;100377.47;11177465;26;1861;-68
2024/04/21 15:07:47;;;;;;;;;;;;;;;18.86;44.01;100366.41;11178319;26;854;-71
2024/04/21 15:12:43;;;;;;;;;;;;;;;18.69;44.29;100377.56;11177203;26;831;-70
2024/04/21 15:17:39;;;;;;;;;;;;;;;18.64;44.21;100374.25;11177950;26;911;-69
2024/04/21 15:22:34;;;;;;;;;;;;;;;18.61;44.68;100384.00;11177149;26;1829;-68
2024/04/21 15:27:33;;;;;;;;;;;;;;;18.78;44.11;100379.88;11177609;26;832;-69
2024/04/21 15:32:28;;;;;;;;;;;;;;;18.81;44.06;100385.06;11176883;26;901;-70
2024/04/21 15:37:24;;;;;;;;;;;;;;;18.71;44.35;100381.88;11177305;26;953;-70
2024/04/21 15:42:20;;;;;;;;;;;;;;;18.68;44.11;100383.75;11176642;26;1026;-68
2024/04/21 15:47:16;;;;;;;;;;;;;;;18.66;44.29;100381.19;11177061;26;1841;-69
2024/04/21 15:52:12;;;;;;;;;;;;;;;18.62;44.27;100393.63;11176272;26;828;-70
2024/04/21 15:57:08;;;;;;;;;;;;;;;18.61;44.26;100397.19;11176097;26;926;-69
2024/04/21 16:02:04;;;;;;;;;;;;;;;18.60;44.29;100397.22;11176354;26;1196;-69
2024/04/21 16:06:59;;;;;;;;;;;;;;;18.60;44.11;100398.13;11177157;26;1920;-69
2024/04/21 16:11:55;;;;;;;;;;;;;;;18.59;44.42;100406.94;11176124;26;884;-69
2024/04/21 16:16:51;;;;;;;;;;;;;;;18.61;44.38;100415.69;11176252;26;1014;-72
2024/04/21 16:21:47;;;;;;;;;;;;;;;18.60;44.28;100413.97;11176320;26;834;-73
2024/04/21 16:26:43;;;;;;;;;;;;;;;18.57;44.36;100413.19;11175027;26;1818;-71
2024/04/21 16:31:41;;;;;;;;;;;;;;;18.56;44.37;100422.91;11175260;26;918;-71
2024/04/21 16:36:37;;;;;;;;;;;;;;;18.54;44.21;100426.50;11175193;26;856;-71
2024/04/21 16:41:33;;;;;;;;;;;;;;;18.53;44.41;100430.94;11175091;26;924;-71
2024/04/21 16:46:29;;;;;;;;;;;;;;;18.53;44.08;100430.94;11175520;26;1861;-70
2024/04/21 16:51:24;;;;;;;;;;;;;;;18.53;44.35;100438.00;11174735;26;863;-71
2024/04/21 16:56:20;;;;;;;;;;;;;;;18.52;43.99;100437.13;11174515;26;887;-70
2024/04/21 17:01:16;;;;;;;;;;;;;;;18.53;44.11;100438.00;11173872;26;1157;-70
2024/04/21 17:06:12;;;;;;;;;;;;;;;18.53;44.50;100436.22;11173693;26;1833;-71
2024/04/21 17:11:08;;;;;;;;;;;;;;;18.53;44.15;100449.41;11174079;26;920;-70
2024/04/21 17:16:04;;;;;;;;;;;;;;;18.54;44.37;100445.84;11173951;26;839;-70
2024/04/21 17:21:00;;;;;;;;;;;;;;;18.53;44.15;100451.19;11173051;26;932;-70
2024/04/21 17:25:56;;;;;;;;;;;;;;;18.51;44.37;100461.78;11173672;26;1822;-70
2024/04/21 17:30:52;;;;;;;;;;;;;;;18.51;44.05;100459.16;11172744;26;894;-70
2024/04/21 17:35:48;;;;;;;;;;;;;;;18.52;44.19;100460.00;11171654;26;890;-70
2024/04/21 17:40:44;;;;;;;;;;;;;;;18.52;44.21;100468.81;11172475;26;856;-71
2024/04/21 17:45:40;;;;;;;;;;;;;;;18.51;44.47;100471.50;11171010;26;1830;-70
2024/04/21 17:50:36;;;;;;;;;;;;;;;18.51;44.33;100469.72;11172737;26;872;-70
2024/04/21 17:55:31;;;;;;;;;;;;;;;18.50;44.37;100462.72;11171790;26;840;-70
2024/04/21 18:00:27;;;;;;;;;;;;;;;18.50;44.35;100473.28;11172248;26;1340;-70
2024/04/21 18:05:23;;;;;;;;;;;;;;;18.50;44.29;100481.19;11172176;26;1837;-70
2024/04/21 18:10:19;;;;;;;;;;;;;;;18.50;44.12;100475.94;11172036;26;873;-70
2024/04/21 18:15:15;;;;;;;;;;;;;;;18.50;44.30;100493.56;11171824;26;876;-70
2024/04/21 18:20:11;;;;;;;;;;;;;;;18.49;44.13;100484.75;11171616;26;914;-70
2024/04/21 18:25:07;;;;;;;;;;;;;;;18.49;44.51;100490.03;11171401;26;1826;-70
2024/04/21 18:30:04;;;;;;;;;;;;;;;18.49;44.29;100497.09;11171323;26;909;-70
2024/04/21 18:34:59;;;;;;;;;;;;;;;18.49;44.22;100500.59;11171776;26;930;-70
2024/04/21 18:39:55;;;;;;;;;;;;;;;18.49;44.28;100499.72;11171500;26;900;-70
2024/04/21 18:44:54;;;;;;;;;;;;;;;18.47;44.35;100494.50;11170626;26;1839;-71
2024/04/21 18:49:50;;;;;;;;;;;;;;;18.47;44.51;100501.53;11176677;26;853;-71
2024/04/21 18:54:45;;;;;;;;;;;;;;;18.47;44.21;100505.06;11178803;26;1570;-72
2024/04/21 18:59:41;;;;;;;;;;;;;;;18.46;44.40;100505.97;11177925;26;1200;-70
2024/04/21 19:04:37;;;;;;;;;;;;;;;18.47;44.39;100512.09;11177950;26;1857;-71
2024/04/21 19:09:33;;;;;;;;;;;;;;;18.47;44.38;100515.63;11179049;26;772;-71
2024/04/21 19:14:29;;;;;;;;;;;;;;;18.48;44.46;100519.13;11177637;26;825;-71
2024/04/21 19:19:25;;;;;;;;;;;;;;;18.47;44.05;100513.00;11177521;26;872;-71
2024/04/21 19:24:21;;;;;;;;;;;;;;;18.47;44.30;100518.28;11177313;26;1825;-70
2024/04/21 19:29:17;;;;;;;;;;;;;;;18.45;44.30;100525.38;11177202;26;932;-70
2024/04/21 19:34:13;;;;;;;;;;;;;;;18.46;44.32;100520.94;11177027;26;1039;-70
2024/04/21 19:39:09;;;;;;;;;;;;;;;18.44;44.47;100526.28;11177562;26;824;-70
2024/04/21 19:44:04;;;;;;;;;;;;;;;18.43;44.48;100529.84;11177295;26;1845;-71
2024/04/21 19:49:00;;;;;;;;;;;;;;;18.44;43.99;100528.06;11177186;26;921;-71
2024/04/21 19:53:56;;;;;;;;;;;;;;;18.43;44.14;100531.63;11176489;26;923;-71
2024/04/21 19:58:52;;;;;;;;;;;;;;;18.42;44.54;100528.13;11174983;26;987;-69
2024/04/21 20:03:48;;;;;;;;;;;;;;;18.42;44.39;100540.44;11176587;26;1853;-70
2024/04/21 20:08:48;;;;;;;;;;;;;;;18.42;44.60;100540.44;11176575;26;942;-70
2024/04/21 20:13:45;;;;;;;;;;;;;;;18.39;44.24;100541.41;11176532;26;821;-70
2024/04/21 20:18:43;;;;;;;;;;;;;;;18.38;44.57;100537.91;11176273;26;934;-70
2024/04/21 20:23:39;;;;;;;;;;;;;;;18.38;44.52;100539.69;11176051;26;1837;-70
2024/04/21 20:28:35;;;;;;;;;;;;;;;18.38;44.22;100550.25;11175938;26;919;-70
2024/04/21 20:33:30;;;;;;;;;;;;;;;18.36;44.04;100549.41;11175880;26;854;-70
2024/04/21 20:38:26;;;;;;;;;;;;;;;18.36;44.35;100547.63;11175612;26;887;-70
2024/04/21 20:43:22;;;;;;;;;;;;;;;18.35;44.26;100555.63;11175468;26;1867;-70
2024/04/21 20:48:18;;;;;;;;;;;;;;;18.33;44.45;100553.03;11176120;26;860;-70
2024/04/21 20:53:14;;;;;;;;;;;;;;;18.32;44.31;100556.59;11175841;26;928;-70
2024/04/21 20:58:10;;;;;;;;;;;;;;;18.32;44.13;100559.22;11175098;26;835;-70
2024/04/21 21:03:06;;;;;;;;;;;;;;;18.30;44.21;100558.41;11174117;26;1856;-70
2024/04/21 21:08:02;;;;;;;;;;;;;;;18.29;43.93;100555.84;11174168;26;834;-70
2024/04/21 21:12:57;;;;;;;;;;;;;;;18.27;44.27;100558.50;11173572;26;868;-70
2024/04/21 21:17:53;;;;;;;;;;;;;;;18.26;44.42;100553.28;11173731;26;840;-70
2024/04/21 21:22:49;;;;;;;;;;;;;;;18.25;44.53;100562.13;11173531;26;1829;-70
2024/04/21 21:27:45;;;;;;;;;;;;;;;18.22;44.17;100565.72;11172965;26;751;-70
2024/04/21 21:32:42;;;;;;;;;;;;;;;18.20;44.04;100561.41;11173969;26;810;-70
2024/04/21 21:37:38;;;;;;;;;;;;;;;18.18;44.34;100564.97;11173831;26;1120;-70
2024/04/21 21:42:34;;;;;;;;;;;;;;;18.17;44.39;100557.06;11173606;26;862;-70
2024/04/21 21:47:29;;;;;;;;;;;;;;;18.16;44.37;100569.41;11172675;26;1821;-70
2024/04/21 21:52:25;;;;;;;;;;;;;;;18.14;44.16;100576.50;11172646;26;902;-70
2024/04/21 21:57:21;;;;;;;;;;;;;;;18.13;44.39;100569.50;11172910;26;954;-70
2024/04/21 22:02:17;;;;;;;;;;;;;;;18.11;44.42;100587.16;11172919;26;1071;-70
2024/04/21 22:07:13;;;;;;;;;;;;;;;18.10;44.24;100588.09;11173275;26;1836;-70
2024/04/21 22:12:09;;;;;;;;;;;;;;;18.10;43.81;100592.47;11172496;26;846;-70
2024/04/21 22:17:05;;;;;;;;;;;;;;;18.08;44.14;100595.19;11172966;26;890;-70
2024/04/21 22:22:01;;;;;;;;;;;;;;;18.07;44.07;100584.66;11173691;26;1394;-70
2024/04/21 22:26:56;;;;;;;;;;;;;;;18.06;43.93;100590.84;11179527;26;1821;-70
2024/04/21 22:31:52;;;;;;;;;;;;;;;18.06;44.18;100598.78;11179398;26;911;-70
2024/04/21 22:36:48;;;;;;;;;;;;;;;18.05;44.29;100605.84;11179263;26;935;-70
2024/04/21 22:41:44;;;;;;;;;;;;;;;18.03;44.08;100598.88;11179164;26;918;-70
2024/04/21 22:46:40;;;;;;;;;;;;;;;18.02;43.89;100589.22;11178918;26;1813;-70
2024/04/21 22:51:36;;;;;;;;;;;;;;;18.01;43.76;100595.41;11178873;26;932;-70
2024/04/21 22:56:32;;;;;;;;;;;;;;;18.00;44.24;100589.28;11179329;26;946;-70
2024/04/21 23:01:27;;;;;;;;;;;;;;;17.98;44.26;100583.19;11178285;26;1108;-70
2024/04/21 23:06:23;;;;;;;;;;;;;;;17.98;43.99;100585.81;11179043;26;1845;-70
2024/04/21 23:11:19;;;;;;;;;;;;;;;17.98;43.72;100588.47;11178227;26;824;-70
2024/04/21 23:16:15;;;;;;;;;;;;;;;17.95;43.96;100589.41;11178147;26;817;-70
2024/04/21 23:21:11;;;;;;;;;;;;;;;17.95;44.05;100589.41;11178618;26;996;-70
2024/04/21 23:26:07;;;;;;;;;;;;;;;17.94;43.65;100592.94;11178447;26;1854;-70
2024/04/21 23:31:03;;;;;;;;;;;;;;;17.93;44.33;100585.09;11178376;26;828;-70
2024/04/21 23:35:59;;;;;;;;;;;;;;;17.92;43.97;100585.97;11177489;26;881;-70
2024/04/21 23:40:55;;;;;;;;;;;;;;;17.92;44.23;100596.53;11177397;26;906;-70
2024/04/21 23:45:51;;;;;;;;;;;;;;;17.91;44.04;100592.19;11177862;26;1821;-70
2024/04/21 23:50:46;;;;;;;;;;;;;;;17.89;44.02;100580.81;11177177;26;1041;-70
2024/04/21 23:55:42;;;;;;;;;;;;;;;17.88;43.87;100590.50;11176837;26;911;-70
